sensor_id;sensor_type;location;lat;lon;timestamp;temperature;humidity
3846;DHT22;1938;50.812;7.738;2023-03-31T00:02:02;9.30;99.90
3846;DHT22;1938;50.812;7.738;2023-03-31T00:04:31;9.30;99.90
3846;DHT22;1938;50.812;7.738;2023-03-31T00:06:57;9.30;99.90
3846;DHT22;1938;50.812;7.738;2023-03-31T00:09:23;9.30;99.90
3846;DHT22;1938;50.812;7.738;2023-03-31T00:11:49;9.30;99.90
3846;DHT22;1938;50.812;7.738;2023-03-31T00:14:18;9.20;99.90
3846;DHT22;1938;50.812;7.738;2023-03-31T00:16:44;9.20;99.90
3846;DHT22;1938;50.812;7.738;2023-03-31T00:19:11;9.10;99.90
3846;DHT22;1938;50.812;7.738;2023-03-31T00:21:43;9.10;99.90
3846;DHT22;1938;50.812;7.738;2023-03-31T00:24:10;9.00;99.90
3846;DHT22;1938;50.812;7.738;2023-03-31T00:26:36;9.00;99.90
3846;DHT22;1938;50.812;7.738;2023-03-31T00:29:04;9.00;99.90
3846;DHT22;1938;50.812;7.738;2023-03-31T00:31:31;9.00;99.90
3846;DHT22;1938;50.812;7.738;2023-03-31T00:33:57;9.00;99.90
3846;DHT22;1938;50.812;7.738;2023-03-31T00:36:23;9.00;99.90
3846;DHT22;1938;50.812;7.738;2023-03-31T00:38:59;9.00;99.90
3846;DHT22;1938;50.812;7.738;2023-03-31T00:41:27;9.00;99.90
3846;DHT22;1938;50.812;7.738;2023-03-31T00:44:15;8.90;99.90
3846;DHT22;1938;50.812;7.738;2023-03-31T00:47:03;8.80;99.90
3846;DHT22;1938;50.812;7.738;2023-03-31T00:49:34;8.90;99.90
3846;DHT22;1938;50.812;7.738;2023-03-31T00:52:20;8.90;99.90
3846;DHT22;1938;50.812;7.738;2023-03-31T00:54:52;8.90;99.90
3846;DHT22;1938;50.812;7.738;2023-03-31T00:57:19;8.80;99.90
3846;DHT22;1938;50.812;7.738;2023-03-31T00:59:49;8.80;99.90
3846;DHT22;1938;50.812;7.738;2023-03-31T01:02:17;8.80;99.90
3846;DHT22;1938;50.812;7.738;2023-03-31T01:04:51;8.80;99.90
3846;DHT22;1938;50.812;7.738;2023-03-31T01:07:42;8.90;99.90
3846;DHT22;1938;50.812;7.738;2023-03-31T01:10:09;8.80;99.90
3846;DHT22;1938;50.812;7.738;2023-03-31T01:12:44;8.80;99.90
3846;DHT22;1938;50.812;7.738;2023-03-31T01:15:11;8.80;99.90
3846;DHT22;1938;50.812;7.738;2023-03-31T01:17:38;8.70;99.90
3846;DHT22;1938;50.812;7.738;2023-03-31T01:41:55;8.50;99.90
3846;DHT22;1938;50.812;7.738;2023-03-31T01:44:36;8.50;99.90
3846;DHT22;1938;50.812;7.738;2023-03-31T01:47:15;8.50;99.90
3846;DHT22;1938;50.812;7.738;2023-03-31T01:52:42;8.50;99.90
3846;DHT22;1938;50.812;7.738;2023-03-31T01:56:01;8.60;99.90
3846;DHT22;1938;50.812;7.738;2023-03-31T01:58:25;8.60;99.90
3846;DHT22;1938;50.812;7.738;2023-03-31T02:00:58;8.70;99.90
3846;DHT22;1938;50.812;7.738;2023-03-31T02:03:33;8.80;99.90
3846;DHT22;1938;50.812;7.738;2023-03-31T02:06:10;8.70;99.90
3846;DHT22;1938;50.812;7.738;2023-03-31T02:08:44;8.80;99.90
3846;DHT22;1938;50.812;7.738;2023-03-31T02:11:12;8.80;99.90
3846;DHT22;1938;50.812;7.738;2023-03-31T02:13:40;8.80;99.90
3846;DHT22;1938;50.812;7.738;2023-03-31T02:16:11;8.80;99.90
3846;DHT22;1938;50.812;7.738;2023-03-31T02:18:40;8.80;99.90
3846;DHT22;1938;50.812;7.738;2023-03-31T02:21:07;8.80;99.90
3846;DHT22;1938;50.812;7.738;2023-03-31T02:23:35;8.80;99.90
3846;DHT22;1938;50.812;7.738;2023-03-31T02:26:22;8.80;99.90
3846;DHT22;1938;50.812;7.738;2023-03-31T02:28:48;8.80;99.90
3846;DHT22;1938;50.812;7.738;2023-03-31T02:34:08;8.90;99.90
3846;DHT22;1938;50.812;7.738;2023-03-31T02:36:34;8.90;99.90
3846;DHT22;1938;50.812;7.738;2023-03-31T02:39:08;8.90;99.90
3846;DHT22;1938;50.812;7.738;2023-03-31T02:41:36;8.90;99.90
3846;DHT22;1938;50.812;7.738;2023-03-31T02:44:03;8.90;99.90
3846;DHT22;1938;50.812;7.738;2023-03-31T02:46:28;8.90;99.90
3846;DHT22;1938;50.812;7.738;2023-03-31T02:48:57;8.90;99.90
3846;DHT22;1938;50.812;7.738;2023-03-31T02:54:30;8.90;99.90
3846;DHT22;1938;50.812;7.738;2023-03-31T02:57:11;8.80;99.90
3846;DHT22;1938;50.812;7.738;2023-03-31T02:59:55;8.80;99.90
3846;DHT22;1938;50.812;7.738;2023-03-31T03:07:58;8.80;99.90
3846;DHT22;1938;50.812;7.738;2023-03-31T03:13:10;8.60;99.90
3846;DHT22;1938;50.812;7.738;2023-03-31T03:15:47;8.60;99.90
3846;DHT22;1938;50.812;7.738;2023-03-31T03:18:16;8.70;99.90
3846;DHT22;1938;50.812;7.738;2023-03-31T03:20:42;8.70;99.90
3846;DHT22;1938;50.812;7.738;2023-03-31T03:23:13;8.70;99.90
3846;DHT22;1938;50.812;7.738;2023-03-31T03:25:40;8.70;99.90
3846;DHT22;1938;50.812;7.738;2023-03-31T03:28:06;8.70;99.90
3846;DHT22;1938;50.812;7.738;2023-03-31T03:30:31;8.80;99.90
3846;DHT22;1938;50.812;7.738;2023-03-31T03:32:58;8.70;99.90
3846;DHT22;1938;50.812;7.738;2023-03-31T03:35:23;8.70;99.90
3846;DHT22;1938;50.812;7.738;2023-03-31T03:37:49;8.70;99.90
3846;DHT22;1938;50.812;7.738;2023-03-31T03:40:15;8.70;99.90
3846;DHT22;1938;50.812;7.738;2023-03-31T03:42:41;8.70;99.90
3846;DHT22;1938;50.812;7.738;2023-03-31T03:45:06;8.70;99.90
3846;DHT22;1938;50.812;7.738;2023-03-31T03:47:32;8.70;99.90
3846;DHT22;1938;50.812;7.738;2023-03-31T03:49:58;8.70;99.90
3846;DHT22;1938;50.812;7.738;2023-03-31T03:52:23;8.70;99.90
3846;DHT22;1938;50.812;7.738;2023-03-31T03:54:50;8.70;99.90
3846;DHT22;1938;50.812;7.738;2023-03-31T03:57:15;8.70;99.90
3846;DHT22;1938;50.812;7.738;2023-03-31T03:59:41;8.60;99.90
3846;DHT22;1938;50.812;7.738;2023-03-31T04:02:06;8.70;99.90
3846;DHT22;1938;50.812;7.738;2023-03-31T04:04:32;8.60;99.90
3846;DHT22;1938;50.812;7.738;2023-03-31T04:06:59;8.60;99.90
3846;DHT22;1938;50.812;7.738;2023-03-31T04:09:25;8.60;99.90
3846;DHT22;1938;50.812;7.738;2023-03-31T04:11:50;8.60;99.90
3846;DHT22;1938;50.812;7.738;2023-03-31T04:14:16;8.60;99.90
3846;DHT22;1938;50.812;7.738;2023-03-31T04:16:41;8.60;99.90
3846;DHT22;1938;50.812;7.738;2023-03-31T04:19:07;8.60;99.90
3846;DHT22;1938;50.812;7.738;2023-03-31T04:21:35;8.60;99.90
3846;DHT22;1938;50.812;7.738;2023-03-31T04:24:03;8.60;99.90
3846;DHT22;1938;50.812;7.738;2023-03-31T04:26:31;8.70;99.90
3846;DHT22;1938;50.812;7.738;2023-03-31T04:29:10;8.70;99.90
3846;DHT22;1938;50.812;7.738;2023-03-31T04:31:45;8.80;99.90
3846;DHT22;1938;50.812;7.738;2023-03-31T04:34:14;8.80;99.90
3846;DHT22;1938;50.812;7.738;2023-03-31T04:36:40;9.00;99.90
3846;DHT22;1938;50.812;7.738;2023-03-31T04:39:07;8.90;99.90
3846;DHT22;1938;50.812;7.738;2023-03-31T04:41:35;8.90;99.90
3846;DHT22;1938;50.812;7.738;2023-03-31T04:44:00;8.90;99.90
3846;DHT22;1938;50.812;7.738;2023-03-31T04:46:26;9.00;99.90
3846;DHT22;1938;50.812;7.738;2023-03-31T04:48:52;9.00;99.90
3846;DHT22;1938;50.812;7.738;2023-03-31T04:51:17;9.00;99.90
3846;DHT22;1938;50.812;7.738;2023-03-31T04:53:45;8.90;99.90
3846;DHT22;1938;50.812;7.738;2023-03-31T04:56:10;8.90;99.90
3846;DHT22;1938;50.812;7.738;2023-03-31T04:58:36;8.90;99.90
3846;DHT22;1938;50.812;7.738;2023-03-31T05:01:02;8.90;99.90
3846;DHT22;1938;50.812;7.738;2023-03-31T05:03:30;8.90;99.90
3846;DHT22;1938;50.812;7.738;2023-03-31T05:05:56;8.90;99.90
3846;DHT22;1938;50.812;7.738;2023-03-31T05:08:21;8.90;99.90
3846;DHT22;1938;50.812;7.738;2023-03-31T05:10:47;8.90;99.90
3846;DHT22;1938;50.812;7.738;2023-03-31T05:13:13;8.70;99.90
3846;DHT22;1938;50.812;7.738;2023-03-31T05:15:39;8.60;99.90
3846;DHT22;1938;50.812;7.738;2023-03-31T05:18:05;8.60;99.90
3846;DHT22;1938;50.812;7.738;2023-03-31T05:20:31;8.50;99.90
3846;DHT22;1938;50.812;7.738;2023-03-31T05:22:56;8.50;99.90
3846;DHT22;1938;50.812;7.738;2023-03-31T05:25:23;8.50;99.90
3846;DHT22;1938;50.812;7.738;2023-03-31T05:27:49;8.40;99.90
3846;DHT22;1938;50.812;7.738;2023-03-31T05:30:16;8.30;99.90
3846;DHT22;1938;50.812;7.738;2023-03-31T05:32:42;8.30;99.90
3846;DHT22;1938;50.812;7.738;2023-03-31T05:35:08;8.20;99.90
3846;DHT22;1938;50.812;7.738;2023-03-31T05:37:34;8.30;99.90
3846;DHT22;1938;50.812;7.738;2023-03-31T05:40:01;8.20;99.90
3846;DHT22;1938;50.812;7.738;2023-03-31T05:42:29;8.20;99.90
3846;DHT22;1938;50.812;7.738;2023-03-31T05:44:54;8.20;99.90
3846;DHT22;1938;50.812;7.738;2023-03-31T05:47:20;8.20;99.90
3846;DHT22;1938;50.812;7.738;2023-03-31T05:49:47;8.20;99.90
3846;DHT22;1938;50.812;7.738;2023-03-31T05:52:13;8.20;99.90
3846;DHT22;1938;50.812;7.738;2023-03-31T05:54:38;8.30;99.90
3846;DHT22;1938;50.812;7.738;2023-03-31T05:57:05;8.50;99.90
3846;DHT22;1938;50.812;7.738;2023-03-31T05:59:31;8.70;99.90
3846;DHT22;1938;50.812;7.738;2023-03-31T06:01:59;8.90;99.90
3846;DHT22;1938;50.812;7.738;2023-03-31T06:04:24;9.10;99.90
3846;DHT22;1938;50.812;7.738;2023-03-31T06:06:50;9.20;99.90
3846;DHT22;1938;50.812;7.738;2023-03-31T06:09:16;9.30;99.90
3846;DHT22;1938;50.812;7.738;2023-03-31T06:11:43;9.30;99.90
3846;DHT22;1938;50.812;7.738;2023-03-31T06:14:09;9.40;99.90
3846;DHT22;1938;50.812;7.738;2023-03-31T06:16:34;9.40;99.90
3846;DHT22;1938;50.812;7.738;2023-03-31T06:19:00;9.40;99.90
3846;DHT22;1938;50.812;7.738;2023-03-31T06:21:26;9.40;99.90
3846;DHT22;1938;50.812;7.738;2023-03-31T06:23:51;9.40;99.90
3846;DHT22;1938;50.812;7.738;2023-03-31T06:26:20;9.40;99.90
3846;DHT22;1938;50.812;7.738;2023-03-31T06:28:47;9.40;99.90
3846;DHT22;1938;50.812;7.738;2023-03-31T06:31:15;9.30;99.90
3846;DHT22;1938;50.812;7.738;2023-03-31T06:33:42;9.30;99.90
3846;DHT22;1938;50.812;7.738;2023-03-31T06:36:09;9.20;99.90
3846;DHT22;1938;50.812;7.738;2023-03-31T06:38:36;9.10;99.90
3846;DHT22;1938;50.812;7.738;2023-03-31T06:41:03;9.10;99.90
3846;DHT22;1938;50.812;7.738;2023-03-31T06:43:29;9.00;99.90
3846;DHT22;1938;50.812;7.738;2023-03-31T06:45:55;9.00;99.90
3846;DHT22;1938;50.812;7.738;2023-03-31T06:48:22;9.10;99.90
3846;DHT22;1938;50.812;7.738;2023-03-31T06:50:48;9.10;99.90
3846;DHT22;1938;50.812;7.738;2023-03-31T06:53:14;9.10;99.90
3846;DHT22;1938;50.812;7.738;2023-03-31T06:55:40;9.10;99.90
3846;DHT22;1938;50.812;7.738;2023-03-31T06:58:05;9.10;99.90
3846;DHT22;1938;50.812;7.738;2023-03-31T07:00:31;9.10;99.90
3846;DHT22;1938;50.812;7.738;2023-03-31T07:02:57;9.10;99.90
3846;DHT22;1938;50.812;7.738;2023-03-31T07:05:23;9.10;99.90
3846;DHT22;1938;50.812;7.738;2023-03-31T07:07:56;9.10;99.90
3846;DHT22;1938;50.812;7.738;2023-03-31T07:10:24;9.00;99.90
3846;DHT22;1938;50.812;7.738;2023-03-31T07:12:50;8.90;99.90
3846;DHT22;1938;50.812;7.738;2023-03-31T07:15:15;8.60;99.90
3846;DHT22;1938;50.812;7.738;2023-03-31T07:17:41;8.60;99.90
3846;DHT22;1938;50.812;7.738;2023-03-31T07:20:14;8.60;99.90
3846;DHT22;1938;50.812;7.738;2023-03-31T07:22:41;8.50;99.90
3846;DHT22;1938;50.812;7.738;2023-03-31T07:25:08;8.60;99.90
3846;DHT22;1938;50.812;7.738;2023-03-31T07:27:34;8.50;99.90
3846;DHT22;1938;50.812;7.738;2023-03-31T07:30:00;8.50;99.90
3846;DHT22;1938;50.812;7.738;2023-03-31T07:32:26;8.50;99.90
3846;DHT22;1938;50.812;7.738;2023-03-31T07:34:51;8.50;99.90
3846;DHT22;1938;50.812;7.738;2023-03-31T07:37:18;8.60;99.90
3846;DHT22;1938;50.812;7.738;2023-03-31T07:39:43;8.60;99.90
3846;DHT22;1938;50.812;7.738;2023-03-31T07:42:09;8.60;99.90
3846;DHT22;1938;50.812;7.738;2023-03-31T07:44:35;8.60;99.90
3846;DHT22;1938;50.812;7.738;2023-03-31T07:47:02;8.70;99.90
3846;DHT22;1938;50.812;7.738;2023-03-31T07:49:30;8.70;99.90
3846;DHT22;1938;50.812;7.738;2023-03-31T07:51:56;8.90;99.90
3846;DHT22;1938;50.812;7.738;2023-03-31T07:54:22;8.90;99.90
3846;DHT22;1938;50.812;7.738;2023-03-31T07:56:47;9.00;99.90
3846;DHT22;1938;50.812;7.738;2023-03-31T07:59:13;9.00;99.90
3846;DHT22;1938;50.812;7.738;2023-03-31T08:01:38;9.10;99.90
3846;DHT22;1938;50.812;7.738;2023-03-31T08:04:04;9.20;99.90
3846;DHT22;1938;50.812;7.738;2023-03-31T08:06:30;9.50;99.90
3846;DHT22;1938;50.812;7.738;2023-03-31T08:08:56;9.80;99.90
3846;DHT22;1938;50.812;7.738;2023-03-31T08:11:22;10.20;99.90
3846;DHT22;1938;50.812;7.738;2023-03-31T08:13:49;10.40;99.90
3846;DHT22;1938;50.812;7.738;2023-03-31T08:16:15;10.40;99.90
3846;DHT22;1938;50.812;7.738;2023-03-31T08:18:41;10.60;99.90
3846;DHT22;1938;50.812;7.738;2023-03-31T08:21:07;10.50;99.90
3846;DHT22;1938;50.812;7.738;2023-03-31T08:23:34;10.40;99.90
3846;DHT22;1938;50.812;7.738;2023-03-31T08:26:11;10.30;99.90
3846;DHT22;1938;50.812;7.738;2023-03-31T08:28:37;10.20;99.90
3846;DHT22;1938;50.812;7.738;2023-03-31T08:31:07;10.10;99.90
3846;DHT22;1938;50.812;7.738;2023-03-31T08:33:34;10.00;99.90
3846;DHT22;1938;50.812;7.738;2023-03-31T08:36:04;10.00;99.90
3846;DHT22;1938;50.812;7.738;2023-03-31T08:38:33;10.10;99.90
3846;DHT22;1938;50.812;7.738;2023-03-31T08:41:00;10.30;99.90
3846;DHT22;1938;50.812;7.738;2023-03-31T08:43:32;10.30;99.90
3846;DHT22;1938;50.812;7.738;2023-03-31T08:46:00;10.50;99.90
3846;DHT22;1938;50.812;7.738;2023-03-31T08:50:59;10.70;99.90
3846;DHT22;1938;50.812;7.738;2023-03-31T08:53:28;10.90;99.90
3846;DHT22;1938;50.812;7.738;2023-03-31T08:55:57;10.90;99.90
3846;DHT22;1938;50.812;7.738;2023-03-31T08:58:47;10.90;99.90
3846;DHT22;1938;50.812;7.738;2023-03-31T09:06:38;11.80;99.90
3846;DHT22;1938;50.812;7.738;2023-03-31T09:09:10;11.70;99.90
3846;DHT22;1938;50.812;7.738;2023-03-31T09:11:49;11.80;1.00
3846;DHT22;1938;50.812;7.738;2023-03-31T09:14:37;11.70;1.00
3846;DHT22;1938;50.812;7.738;2023-03-31T09:17:25;11.80;1.00
3846;DHT22;1938;50.812;7.738;2023-03-31T09:20:15;12.00;1.00
3846;DHT22;1938;50.812;7.738;2023-03-31T09:22:46;12.50;1.00
3846;DHT22;1938;50.812;7.738;2023-03-31T09:25:25;13.10;99.90
3846;DHT22;1938;50.812;7.738;2023-03-31T09:27:54;13.70;1.00
3846;DHT22;1938;50.812;7.738;2023-03-31T09:30:28;14.10;1.00
3846;DHT22;1938;50.812;7.738;2023-03-31T09:33:10;14.60;99.90
3846;DHT22;1938;50.812;7.738;2023-03-31T09:35:37;15.00;1.00
3846;DHT22;1938;50.812;7.738;2023-03-31T09:38:03;15.30;99.90
3846;DHT22;1938;50.812;7.738;2023-03-31T09:40:28;15.60;99.90
3846;DHT22;1938;50.812;7.738;2023-03-31T09:45:30;16.00;1.00
3846;DHT22;1938;50.812;7.738;2023-03-31T09:48:01;16.00;1.00
3846;DHT22;1938;50.812;7.738;2023-03-31T09:50:28;15.90;1.00
3846;DHT22;1938;50.812;7.738;2023-03-31T09:52:57;16.00;1.00
3846;DHT22;1938;50.812;7.738;2023-03-31T09:55:54;15.90;1.00
3846;DHT22;1938;50.812;7.738;2023-03-31T09:58:22;15.90;99.90
3846;DHT22;1938;50.812;7.738;2023-03-31T10:01:04;15.90;99.90
3846;DHT22;1938;50.812;7.738;2023-03-31T10:03:31;15.80;99.90
3846;DHT22;1938;50.812;7.738;2023-03-31T10:06:07;15.50;99.90
3846;DHT22;1938;50.812;7.738;2023-03-31T10:08:38;15.40;99.90
3846;DHT22;1938;50.812;7.738;2023-03-31T10:18:54;14.80;99.90
3846;DHT22;1938;50.812;7.738;2023-03-31T10:21:24;14.90;99.90
3846;DHT22;1938;50.812;7.738;2023-03-31T10:23:52;14.90;99.90
3846;DHT22;1938;50.812;7.738;2023-03-31T10:26:37;14.90;99.90
3846;DHT22;1938;50.812;7.738;2023-03-31T10:29:11;14.70;99.90
3846;DHT22;1938;50.812;7.738;2023-03-31T10:31:38;14.40;99.90
3846;DHT22;1938;50.812;7.738;2023-03-31T10:34:12;14.10;99.90
3846;DHT22;1938;50.812;7.738;2023-03-31T10:36:45;13.60;1.00
3846;DHT22;1938;50.812;7.738;2023-03-31T10:39:14;13.00;99.90
3846;DHT22;1938;50.812;7.738;2023-03-31T10:41:40;12.10;99.90
3846;DHT22;1938;50.812;7.738;2023-03-31T10:44:10;11.80;99.90
3846;DHT22;1938;50.812;7.738;2023-03-31T10:46:51;11.50;99.90
3846;DHT22;1938;50.812;7.738;2023-03-31T10:51:52;11.80;1.00
3846;DHT22;1938;50.812;7.738;2023-03-31T10:54:18;12.10;34.60
3846;DHT22;1938;50.812;7.738;2023-03-31T10:56:46;12.20;1.00
3846;DHT22;1938;50.812;7.738;2023-03-31T11:07:57;12.00;1.00
3846;DHT22;1938;50.812;7.738;2023-03-31T11:10:40;11.90;1.00
3846;DHT22;1938;50.812;7.738;2023-03-31T11:13:28;11.70;99.90
3846;DHT22;1938;50.812;7.738;2023-03-31T11:24:15;11.80;1.00
3846;DHT22;1938;50.812;7.738;2023-03-31T11:26:49;11.80;41.30
3846;DHT22;1938;50.812;7.738;2023-03-31T11:29:36;11.80;16.90
3846;DHT22;1938;50.812;7.738;2023-03-31T11:32:25;11.60;1.00
3846;DHT22;1938;50.812;7.738;2023-03-31T11:38:06;11.40;99.90
3846;DHT22;1938;50.812;7.738;2023-03-31T11:40:47;11.20;99.90
3846;DHT22;1938;50.812;7.738;2023-03-31T11:45:52;11.10;1.00
3846;DHT22;1938;50.812;7.738;2023-03-31T11:48:35;11.00;13.30
3846;DHT22;1938;50.812;7.738;2023-03-31T11:51:06;10.90;99.90
3846;DHT22;1938;50.812;7.738;2023-03-31T11:53:36;10.90;99.90
3846;DHT22;1938;50.812;7.738;2023-03-31T11:56:03;10.80;1.00
3846;DHT22;1938;50.812;7.738;2023-03-31T11:58:37;10.80;1.00
3846;DHT22;1938;50.812;7.738;2023-03-31T12:06:31;10.50;90.30
3846;DHT22;1938;50.812;7.738;2023-03-31T12:09:12;10.50;94.00
3846;DHT22;1938;50.812;7.738;2023-03-31T12:12:14;10.50;99.90
3846;DHT22;1938;50.812;7.738;2023-03-31T12:14:50;10.60;99.90
3846;DHT22;1938;50.812;7.738;2023-03-31T12:17:20;10.90;99.90
3846;DHT22;1938;50.812;7.738;2023-03-31T12:22:37;11.50;99.90
3846;DHT22;1938;50.812;7.738;2023-03-31T12:25:07;11.70;1.00
3846;DHT22;1938;50.812;7.738;2023-03-31T12:27:43;11.70;99.90
3846;DHT22;1938;50.812;7.738;2023-03-31T12:30:29;11.70;99.90
3846;DHT22;1938;50.812;7.738;2023-03-31T12:38:22;11.90;1.00
3846;DHT22;1938;50.812;7.738;2023-03-31T12:46:58;11.30;1.00
3846;DHT22;1938;50.812;7.738;2023-03-31T12:49:38;10.70;1.00
3846;DHT22;1938;50.812;7.738;2023-03-31T12:52:14;10.40;1.00
3846;DHT22;1938;50.812;7.738;2023-03-31T12:59:35;9.90;1.00
3846;DHT22;1938;50.812;7.738;2023-03-31T13:02:23;10.00;8.50
3846;DHT22;1938;50.812;7.738;2023-03-31T13:04:50;10.00;12.80
3846;DHT22;1938;50.812;7.738;2023-03-31T13:07:35;10.00;1.00
3846;DHT22;1938;50.812;7.738;2023-03-31T13:13:01;9.90;99.90
3846;DHT22;1938;50.812;7.738;2023-03-31T13:15:27;10.00;1.00
3846;DHT22;1938;50.812;7.738;2023-03-31T13:18:03;10.10;57.80
3846;DHT22;1938;50.812;7.738;2023-03-31T13:20:38;10.40;99.90
3846;DHT22;1938;50.812;7.738;2023-03-31T13:23:15;10.40;99.90
3846;DHT22;1938;50.812;7.738;2023-03-31T13:25:49;10.60;99.90
3846;DHT22;1938;50.812;7.738;2023-03-31T13:30:45;10.80;19.60
3846;DHT22;1938;50.812;7.738;2023-03-31T13:33:35;10.80;99.90
3846;DHT22;1938;50.812;7.738;2023-03-31T13:39:38;11.00;99.90
3846;DHT22;1938;50.812;7.738;2023-03-31T13:44:45;11.00;99.90
3846;DHT22;1938;50.812;7.738;2023-03-31T13:55:55;10.90;15.90
3846;DHT22;1938;50.812;7.738;2023-03-31T14:08:51;10.10;99.90
3846;DHT22;1938;50.812;7.738;2023-03-31T14:11:25;10.10;48.80
3846;DHT22;1938;50.812;7.738;2023-03-31T14:14:09;10.20;1.00
3846;DHT22;1938;50.812;7.738;2023-03-31T14:16:38;10.20;1.00
3846;DHT22;1938;50.812;7.738;2023-03-31T14:35:34;10.50;1.00
3846;DHT22;1938;50.812;7.738;2023-03-31T14:38:08;10.40;27.80
3846;DHT22;1938;50.812;7.738;2023-03-31T14:40:46;10.50;65.30
3846;DHT22;1938;50.812;7.738;2023-03-31T14:43:39;10.60;69.10
3846;DHT22;1938;50.812;7.738;2023-03-31T14:46:09;10.60;99.90
3846;DHT22;1938;50.812;7.738;2023-03-31T14:48:42;10.70;73.70
3846;DHT22;1938;50.812;7.738;2023-03-31T14:51:10;10.70;99.90
3846;DHT22;1938;50.812;7.738;2023-03-31T14:53:36;10.70;99.90
3846;DHT22;1938;50.812;7.738;2023-03-31T14:56:04;10.60;99.90
3846;DHT22;1938;50.812;7.738;2023-03-31T14:58:37;10.70;99.90
3846;DHT22;1938;50.812;7.738;2023-03-31T15:01:06;10.70;99.90
3846;DHT22;1938;50.812;7.738;2023-03-31T15:03:38;10.60;99.90
3846;DHT22;1938;50.812;7.738;2023-03-31T15:06:06;10.50;99.90
3846;DHT22;1938;50.812;7.738;2023-03-31T15:08:33;10.50;99.90
3846;DHT22;1938;50.812;7.738;2023-03-31T15:11:04;10.50;99.90
3846;DHT22;1938;50.812;7.738;2023-03-31T15:13:35;10.40;99.90
3846;DHT22;1938;50.812;7.738;2023-03-31T15:16:39;10.40;99.90
3846;DHT22;1938;50.812;7.738;2023-03-31T15:19:22;10.40;99.90
3846;DHT22;1938;50.812;7.738;2023-03-31T15:22:01;10.30;99.90
3846;DHT22;1938;50.812;7.738;2023-03-31T15:24:30;10.40;99.90
3846;DHT22;1938;50.812;7.738;2023-03-31T15:27:02;10.70;99.90
3846;DHT22;1938;50.812;7.738;2023-03-31T15:32:13;11.10;99.90
3846;DHT22;1938;50.812;7.738;2023-03-31T15:34:41;11.20;99.90
3846;DHT22;1938;50.812;7.738;2023-03-31T15:37:08;11.30;99.90
3846;DHT22;1938;50.812;7.738;2023-03-31T15:39:35;11.40;12.90
3846;DHT22;1938;50.812;7.738;2023-03-31T15:42:03;11.40;1.00
3846;DHT22;1938;50.812;7.738;2023-03-31T15:44:54;11.40;99.90
3846;DHT22;1938;50.812;7.738;2023-03-31T15:47:27;11.50;99.90
3846;DHT22;1938;50.812;7.738;2023-03-31T15:50:02;11.50;99.90
3846;DHT22;1938;50.812;7.738;2023-03-31T15:52:36;11.50;99.90
3846;DHT22;1938;50.812;7.738;2023-03-31T15:55:24;11.60;1.00
3846;DHT22;1938;50.812;7.738;2023-03-31T15:57:52;11.50;1.00
3846;DHT22;1938;50.812;7.738;2023-03-31T16:03:35;11.50;99.90
3846;DHT22;1938;50.812;7.738;2023-03-31T16:06:14;11.50;99.90
3846;DHT22;1938;50.812;7.738;2023-03-31T16:08:46;11.50;99.90
3846;DHT22;1938;50.812;7.738;2023-03-31T16:11:16;11.50;99.90
3846;DHT22;1938;50.812;7.738;2023-03-31T16:13:46;11.50;99.90
3846;DHT22;1938;50.812;7.738;2023-03-31T16:16:15;11.50;1.00
3846;DHT22;1938;50.812;7.738;2023-03-31T16:18:59;11.40;99.90
3846;DHT22;1938;50.812;7.738;2023-03-31T16:21:34;11.40;99.90
3846;DHT22;1938;50.812;7.738;2023-03-31T16:24:00;11.30;99.90
3846;DHT22;1938;50.812;7.738;2023-03-31T16:26:27;11.30;99.90
3846;DHT22;1938;50.812;7.738;2023-03-31T16:28:55;11.20;99.90
3846;DHT22;1938;50.812;7.738;2023-03-31T16:31:35;11.20;99.90
3846;DHT22;1938;50.812;7.738;2023-03-31T16:34:02;11.20;99.90
3846;DHT22;1938;50.812;7.738;2023-03-31T16:36:29;11.10;99.90
3846;DHT22;1938;50.812;7.738;2023-03-31T16:38:55;11.10;99.90
3846;DHT22;1938;50.812;7.738;2023-03-31T16:41:23;11.10;1.00
3846;DHT22;1938;50.812;7.738;2023-03-31T16:43:51;11.10;1.00
3846;DHT22;1938;50.812;7.738;2023-03-31T16:46:18;11.10;99.90
3846;DHT22;1938;50.812;7.738;2023-03-31T16:48:44;11.10;99.90
3846;DHT22;1938;50.812;7.738;2023-03-31T16:51:11;11.10;1.00
3846;DHT22;1938;50.812;7.738;2023-03-31T16:53:37;11.10;1.00
3846;DHT22;1938;50.812;7.738;2023-03-31T16:56:04;10.40;1.00
3846;DHT22;1938;50.812;7.738;2023-03-31T16:58:31;10.20;98.30
3846;DHT22;1938;50.812;7.738;2023-03-31T17:00:58;10.00;99.90
3846;DHT22;1938;50.812;7.738;2023-03-31T17:03:24;9.80;99.90
3846;DHT22;1938;50.812;7.738;2023-03-31T17:05:55;9.60;99.90
3846;DHT22;1938;50.812;7.738;2023-03-31T17:08:23;9.70;99.90
3846;DHT22;1938;50.812;7.738;2023-03-31T17:10:52;9.70;99.90
3846;DHT22;1938;50.812;7.738;2023-03-31T17:13:18;9.60;99.90
3846;DHT22;1938;50.812;7.738;2023-03-31T17:15:43;9.50;99.90
3846;DHT22;1938;50.812;7.738;2023-03-31T17:18:09;9.50;99.90
3846;DHT22;1938;50.812;7.738;2023-03-31T17:20:35;9.50;99.90
3846;DHT22;1938;50.812;7.738;2023-03-31T17:23:01;9.50;99.90
3846;DHT22;1938;50.812;7.738;2023-03-31T17:25:27;9.50;99.90
3846;DHT22;1938;50.812;7.738;2023-03-31T17:27:52;9.50;99.90
3846;DHT22;1938;50.812;7.738;2023-03-31T17:30:20;9.60;99.90
3846;DHT22;1938;50.812;7.738;2023-03-31T17:32:47;9.70;99.90
3846;DHT22;1938;50.812;7.738;2023-03-31T17:35:13;9.90;33.90
3846;DHT22;1938;50.812;7.738;2023-03-31T17:37:46;10.00;15.50
3846;DHT22;1938;50.812;7.738;2023-03-31T17:40:12;10.00;1.00
3846;DHT22;1938;50.812;7.738;2023-03-31T17:42:38;10.00;1.00
3846;DHT22;1938;50.812;7.738;2023-03-31T17:45:04;10.00;99.90
3846;DHT22;1938;50.812;7.738;2023-03-31T17:47:30;9.90;69.90
3846;DHT22;1938;50.812;7.738;2023-03-31T17:49:57;10.00;99.90
3846;DHT22;1938;50.812;7.738;2023-03-31T17:52:23;10.00;46.10
3846;DHT22;1938;50.812;7.738;2023-03-31T17:54:49;9.80;99.90
3846;DHT22;1938;50.812;7.738;2023-03-31T17:57:16;9.80;99.90
3846;DHT22;1938;50.812;7.738;2023-03-31T17:59:42;9.90;99.90
3846;DHT22;1938;50.812;7.738;2023-03-31T18:02:11;9.90;99.90
3846;DHT22;1938;50.812;7.738;2023-03-31T18:04:37;9.90;1.00
3846;DHT22;1938;50.812;7.738;2023-03-31T18:07:03;9.80;99.90
3846;DHT22;1938;50.812;7.738;2023-03-31T18:09:28;9.80;99.90
3846;DHT22;1938;50.812;7.738;2023-03-31T18:11:54;9.80;99.90
3846;DHT22;1938;50.812;7.738;2023-03-31T18:14:20;9.80;99.90
3846;DHT22;1938;50.812;7.738;2023-03-31T18:16:45;9.70;99.90
3846;DHT22;1938;50.812;7.738;2023-03-31T18:19:11;9.70;1.00
3846;DHT22;1938;50.812;7.738;2023-03-31T18:21:36;9.70;99.90
3846;DHT22;1938;50.812;7.738;2023-03-31T18:24:03;9.70;99.90
3846;DHT22;1938;50.812;7.738;2023-03-31T18:26:29;9.80;1.00
3846;DHT22;1938;50.812;7.738;2023-03-31T18:28:54;9.80;1.00
3846;DHT22;1938;50.812;7.738;2023-03-31T18:31:20;9.80;1.00
3846;DHT22;1938;50.812;7.738;2023-03-31T18:33:46;9.70;1.00
3846;DHT22;1938;50.812;7.738;2023-03-31T18:36:16;9.70;1.00
3846;DHT22;1938;50.812;7.738;2023-03-31T18:38:43;9.60;34.20
3846;DHT22;1938;50.812;7.738;2023-03-31T18:41:10;9.80;99.90
3846;DHT22;1938;50.812;7.738;2023-03-31T18:43:35;9.90;99.90
3846;DHT22;1938;50.812;7.738;2023-03-31T18:46:01;10.00;17.80
3846;DHT22;1938;50.812;7.738;2023-03-31T18:48:28;10.00;37.50
3846;DHT22;1938;50.812;7.738;2023-03-31T18:50:54;10.20;99.90
3846;DHT22;1938;50.812;7.738;2023-03-31T18:53:20;10.30;99.90
3846;DHT22;1938;50.812;7.738;2023-03-31T18:55:50;10.40;42.90
3846;DHT22;1938;50.812;7.738;2023-03-31T18:58:16;10.40;1.00
3846;DHT22;1938;50.812;7.738;2023-03-31T19:00:42;10.40;1.00
3846;DHT22;1938;50.812;7.738;2023-03-31T19:03:08;10.50;57.80
3846;DHT22;1938;50.812;7.738;2023-03-31T19:05:33;10.50;6.40
3846;DHT22;1938;50.812;7.738;2023-03-31T19:07:59;10.50;18.30
3846;DHT22;1938;50.812;7.738;2023-03-31T19:10:25;10.50;29.90